Time;durP1;ratioP1;P1;durP2;ratioP2;P2;SDS_P1;SDS_P2;PMS_P1;PMS_P2;Temp;Humidity;BMP_temperature;BMP_pressure;BME280_temperature;BME280_humidity;BME280_pressure;Samples;Min_cycle;Max_cycle;Signal;HPM_P1;HPM_P2
2022/01/27 00:00:43;;;;;;;79.38;42.05;;;;;;;0.47;100.00;99627.34;2106803;28;20192;-70
2022/01/27 00:01:54;;;;;;;75.55;41.15;;;;;;;0.49;100.00;99626.13;2105958;28;20375;-70
2022/01/27 00:03:14;;;;;;;73.90;41.50;;;;;;;0.46;100.00;99639.69;2098264;28;20221;-71
2022/01/27 00:04:20;;;;;;;77.57;43.00;;;;;;;0.47;100.00;99645.72;2100052;28;20557;-70
2022/01/27 00:05:26;;;;;;;78.32;41.67;;;;;;;0.41;100.00;99623.75;2098544;28;20256;-71
2022/01/27 00:06:33;;;;;;;74.07;41.53;;;;;;;0.45;100.00;99640.72;2105833;28;20213;-71
2022/01/27 00:07:37;;;;;;;79.00;42.30;;;;;;;0.42;100.00;99635.06;2105565;28;20575;-71
2022/01/27 00:08:45;;;;;;;74.20;41.63;;;;;;;0.38;100.00;99639.16;2106289;28;20216;-71
2022/01/27 00:10:01;;;;;;;76.13;41.90;;;;;;;0.35;100.00;99637.78;2107134;28;20170;-71
2022/01/27 00:11:10;;;;;;;74.68;41.80;;;;;;;0.38;100.00;99637.31;2107054;28;20583;-70
2022/01/27 00:12:18;;;;;;;65.10;41.10;;;;;;;0.36;100.00;99633.31;2106881;28;20662;-71
2022/01/27 00:13:29;;;;;;;70.88;39.90;;;;;;;0.38;100.00;99637.31;2107096;28;20174;-71
2022/01/27 00:14:45;;;;;;;74.55;41.80;;;;;;;0.40;100.00;99642.34;2106809;28;20197;-70
2022/01/27 00:15:57;;;;;;;69.38;39.78;;;;;;;0.41;100.00;99644.75;2107010;28;20223;-72
2022/01/27 00:17:13;;;;;;;68.30;40.60;;;;;;;0.37;100.00;99643.59;2106996;28;20176;-72
2022/01/27 00:18:17;;;;;;;66.32;39.05;;;;;;;0.35;100.00;99648.25;2106861;28;20538;-72
2022/01/27 00:19:24;;;;;;;67.45;40.05;;;;;;;0.30;100.00;99652.53;2105636;28;20190;-72
2022/01/27 00:20:28;;;;;;;65.28;39.38;;;;;;;0.27;100.00;99654.59;2106185;28;20290;-72
2022/01/27 00:21:37;;;;;;;68.75;40.47;;;;;;;0.36;100.00;99663.00;2108017;28;20247;-71
2022/01/27 00:22:45;;;;;;;68.38;40.30;;;;;;;0.32;100.00;99661.00;2108668;28;20201;-71
2022/01/27 00:23:47;;;;;;;66.43;38.63;;;;;;;0.34;100.00;99667.63;2106821;28;20734;-71
2022/01/27 00:24:49;;;;;;;65.88;38.95;;;;;;;0.34;100.00;99665.00;2108028;28;20182;-72
2022/01/27 00:25:51;;;;;;;64.32;38.05;;;;;;;0.26;100.00;99678.38;2108547;28;20190;-71
2022/01/27 00:26:59;;;;;;;67.85;39.58;;;;;;;0.24;100.00;99670.72;2108345;28;20185;-71
2022/01/27 00:28:02;;;;;;;70.90;39.95;;;;;;;0.25;100.00;99682.03;2108613;28;20177;-71
2022/01/27 00:29:06;;;;;;;63.75;39.42;;;;;;;0.21;100.00;99676.41;2106969;28;20197;-71
2022/01/27 00:30:17;;;;;;;65.65;40.13;;;;;;;0.19;100.00;99673.22;2107968;28;20621;-71
2022/01/27 00:31:20;;;;;;;66.32;39.85;;;;;;;0.24;100.00;99675.19;2108585;28;20616;-71
2022/01/27 00:32:24;;;;;;;66.00;38.20;;;;;;;0.22;100.00;99678.03;2107652;28;20197;-71
2022/01/27 00:33:25;;;;;;;67.47;39.70;;;;;;;0.20;100.00;99668.75;2099401;28;20589;-71
2022/01/27 00:34:29;;;;;;;67.40;40.78;;;;;;;0.24;100.00;99665.50;2098687;28;20218;-71
2022/01/27 00:35:37;;;;;;;66.72;39.40;;;;;;;0.22;100.00;99672.78;2107651;28;20189;-71
2022/01/27 00:36:42;;;;;;;67.20;39.70;;;;;;;0.23;100.00;99673.56;2107981;28;20225;-71
2022/01/27 00:37:46;;;;;;;64.07;38.70;;;;;;;0.23;100.00;99665.72;2108228;28;20194;-72
2022/01/27 00:38:49;;;;;;;66.93;39.10;;;;;;;0.21;100.00;99665.94;2108267;28;20189;-71
2022/01/27 00:39:56;;;;;;;60.17;37.00;;;;;;;0.16;100.00;99667.56;2107218;28;20555;-71
2022/01/27 00:41:01;;;;;;;58.72;37.47;;;;;;;0.18;100.00;99661.13;2107694;28;20208;-71
2022/01/27 00:42:04;;;;;;;61.17;37.53;;;;;;;0.15;100.00;99660.72;2108217;28;20190;-71
2022/01/27 00:43:11;;;;;;;64.13;38.60;;;;;;;0.23;100.00;99661.25;2108215;28;20720;-71
2022/01/27 00:44:18;;;;;;;56.45;36.92;;;;;;;0.22;100.00;99664.09;2106909;28;20565;-71
2022/01/27 00:45:23;;;;;;;63.83;40.80;;;;;;;0.20;100.00;99658.28;2107640;28;20201;-71
2022/01/27 00:46:26;;;;;;;64.60;39.35;;;;;;;0.20;100.00;99671.38;2108230;28;20174;-71
2022/01/27 00:47:29;;;;;;;60.15;38.92;;;;;;;0.20;100.00;99666.13;2108227;28;20272;-71
2022/01/27 00:48:33;;;;;;;59.47;37.92;;;;;;;0.18;100.00;99681.31;2108412;28;20186;-71
2022/01/27 00:49:38;;;;;;;63.58;41.13;;;;;;;0.18;100.00;99657.69;2108046;28;20197;-71
2022/01/27 00:50:48;;;;;;;55.50;38.83;;;;;;;0.18;100.00;99665.56;2108077;28;20717;-71
2022/01/27 00:51:50;;;;;;;58.65;40.00;;;;;;;0.15;100.00;99663.34;2107686;28;20232;-71
2022/01/27 00:52:56;;;;;;;65.63;41.40;;;;;;;0.14;100.00;99666.97;2108184;28;20190;-71
2022/01/27 00:54:06;;;;;;;62.17;40.97;;;;;;;0.14;100.00;99662.53;2108198;28;20547;-71
2022/01/27 00:55:12;;;;;;;62.75;41.78;;;;;;;0.12;100.00;99661.97;2107080;28;20220;-71
2022/01/27 00:56:24;;;;;;;63.30;42.13;;;;;;;0.10;100.00;99650.06;2107640;28;20228;-71
2022/01/27 00:57:40;;;;;;;61.15;40.17;;;;;;;0.06;100.00;99659.38;2107389;28;20364;-71
2022/01/27 00:58:51;;;;;;;67.18;42.53;;;;;;;0.07;100.00;99658.34;2100894;28;20256;-71
2022/01/27 00:59:57;;;;;;;66.07;40.90;;;;;;;0.06;100.00;99668.03;2100393;28;20206;-71
2022/01/27 01:01:06;;;;;;;62.38;43.00;;;;;;;0.09;100.00;99669.44;2107506;28;20170;-71
2022/01/27 01:02:19;;;;;;;61.00;40.92;;;;;;;0.07;100.00;99668.84;2107290;28;20206;-72
2022/01/27 01:03:29;;;;;;;65.55;42.03;;;;;;;0.09;100.00;99667.63;2107641;28;20230;-71
2022/01/27 01:04:41;;;;;;;64.95;42.17;;;;;;;0.09;100.00;99665.00;2108101;28;20543;-71
2022/01/27 01:06:06;;;;;;;69.90;44.55;;;;;;;0.06;100.00;99662.00;2108299;28;20170;-71
2022/01/27 01:07:11;;;;;;;61.08;40.25;;;;;;;0.08;100.00;99667.81;2107935;28;20667;-71
2022/01/27 01:09:02;;;;;;;62.25;42.00;;;;;;;0.03;100.00;99670.28;2107028;28;20261;-71
2022/01/27 01:10:42;;;;;;;67.70;41.70;;;;;;;0.04;100.00;99656.16;2107818;28;20204;-71
2022/01/27 01:15:54;;;;;;;66.97;42.13;;;;;;;-0.02;100.00;99655.97;2107745;28;20189;-71
2022/01/27 01:17:06;;;;;;;61.95;40.70;;;;;;;-0.02;100.00;99644.69;2106937;28;20252;-71
2022/01/27 01:18:25;;;;;;;64.22;41.28;;;;;;;0.03;100.00;99644.88;2106845;28;20226;-71
2022/01/27 01:19:41;;;;;;;61.13;41.22;;;;;;;0.00;100.00;99640.06;2101064;28;20378;-71
2022/01/27 01:21:03;;;;;;;64.05;43.78;;;;;;;0.03;100.00;99646.69;2107546;28;20178;-71
2022/01/27 01:29:25;;;;;;;62.20;42.42;;;;;;;0.01;100.00;99643.47;2107797;28;20198;-71
2022/01/27 01:29:50;;;;;;;61.60;39.70;;;;;;;0.03;100.00;99637.00;2108000;28;20224;-71
2022/01/27 01:31:09;;;;;;;58.15;39.08;;;;;;;0.02;100.00;99642.47;2107661;28;20272;-71
2022/01/27 01:32:29;;;;;;;55.63;37.78;;;;;;;0.02;100.00;99639.84;2107869;28;20181;-71
2022/01/27 01:33:34;;;;;;;60.20;40.67;;;;;;;-0.01;100.00;99636.59;2107822;28;20193;-70
2022/01/27 01:34:43;;;;;;;58.35;39.90;;;;;;;-0.04;100.00;99636.25;2107041;28;20194;-70
2022/01/27 01:35:49;;;;;;;62.17;37.53;;;;;;;-0.07;100.00;99634.84;2107535;28;20265;-70
2022/01/27 01:36:57;;;;;;;57.80;39.08;;;;;;;-0.06;100.00;99635.66;2107536;28;20221;-70
2022/01/27 01:37:59;;;;;;;57.88;39.83;;;;;;;-0.08;100.00;99632.44;2108008;28;20254;-71
2022/01/27 01:39:06;;;;;;;61.15;40.67;;;;;;;-0.07;100.00;99637.47;2106604;28;20210;-70
2022/01/27 01:40:13;;;;;;;60.25;39.58;;;;;;;-0.06;100.00;99633.84;2098969;28;20715;-70
2022/01/27 01:41:16;;;;;;;56.08;40.03;;;;;;;-0.05;100.00;99635.44;2099555;28;20198;-70
2022/01/27 01:42:21;;;;;;;59.33;40.35;;;;;;;-0.06;100.00;99633.84;2107321;28;20190;-70
2022/01/27 01:43:26;;;;;;;61.15;39.28;;;;;;;-0.04;100.00;99637.03;2107646;28;20237;-70
2022/01/27 01:44:32;;;;;;;55.30;38.67;;;;;;;-0.04;100.00;99642.28;2107735;28;20210;-71
2022/01/27 01:45:36;;;;;;;56.95;36.92;;;;;;;-0.07;100.00;99640.09;2106611;28;20206;-70
2022/01/27 01:46:42;;;;;;;54.08;38.53;;;;;;;-0.04;100.00;99637.03;2098860;28;20198;-71
2022/01/27 01:47:49;;;;;;;58.33;38.25;;;;;;;-0.07;100.00;99640.09;2099300;28;20538;-71
2022/01/27 01:48:52;;;;;;;53.63;35.00;;;;;;;-0.10;100.00;99631.84;2107207;28;20548;-70
2022/01/27 01:49:56;;;;;;;56.33;37.35;;;;;;;-0.07;100.00;99634.84;2107678;28;20664;-71
2022/01/27 01:51:03;;;;;;;50.47;35.75;;;;;;;-0.06;100.00;99633.84;2107039;28;20194;-71
2022/01/27 01:52:10;;;;;;;51.05;36.08;;;;;;;-0.08;100.00;99620.13;2106291;28;20213;-70
2022/01/27 01:53:14;;;;;;;49.85;35.80;;;;;;;-0.10;100.00;99622.16;2099163;28;20668;-70
2022/01/27 01:54:17;;;;;;;50.17;35.95;;;;;;;-0.07;100.00;99626.19;2106974;28;20248;-70
2022/01/27 01:55:18;;;;;;;51.78;36.40;;;;;;;-0.02;100.00;99616.63;2107656;28;20255;-70
2022/01/27 01:56:22;;;;;;;52.58;37.13;;;;;;;-0.07;100.00;99615.69;2107592;28;20212;-70
2022/01/27 01:57:26;;;;;;;51.00;36.38;;;;;;;-0.06;100.00;99617.28;2107644;28;20200;-70
2022/01/27 01:58:34;;;;;;;51.35;35.38;;;;;;;-0.07;100.00;99628.81;2107768;28;20643;-70
2022/01/27 01:59:39;;;;;;;51.42;36.00;;;;;;;-0.08;100.00;99629.81;2106804;28;20229;-70
2022/01/27 02:00:44;;;;;;;51.42;35.30;;;;;;;-0.08;100.00;99620.13;2107154;28;20239;-70
2022/01/27 02:01:48;;;;;;;52.40;36.58;;;;;;;-0.08;100.00;99622.75;2107538;28;20588;-71
2022/01/27 02:02:51;;;;;;;48.45;34.38;;;;;;;-0.12;100.00;99618.94;2107652;28;20189;-70
2022/01/27 02:04:02;;;;;;;46.42;34.80;;;;;;;-0.10;100.00;99610.84;2107814;28;20584;-70
2022/01/27 02:05:05;;;;;;;48.63;35.38;;;;;;;-0.10;100.00;99610.84;2107698;28;20178;-70
2022/01/27 02:06:16;;;;;;;49.22;36.35;;;;;;;-0.08;100.00;99609.66;2106959;28;20190;-71
2022/01/27 02:07:30;;;;;;;49.05;34.45;;;;;;;-0.16;100.00;99619.59;2107542;28;20193;-70
2022/01/27 02:08:49;;;;;;;49.55;35.95;;;;;;;-0.18;100.00;99608.50;2107668;28;20189;-70
2022/01/27 02:10:07;;;;;;;48.40;34.50;;;;;;;-0.15;100.00;99608.09;2107780;28;20519;-70
2022/01/27 02:18:07;;;;;;;49.33;34.40;;;;;;;-0.16;100.00;99596.00;2106638;28;20684;-70
2022/01/27 02:19:13;;;;;;;51.15;35.67;;;;;;;-0.07;100.00;99606.00;2107190;28;20181;-71
2022/01/27 02:20:19;;;;;;;49.35;37.00;;;;;;;-0.13;100.00;99612.09;2107531;28;20186;-70
2022/01/27 02:21:25;;;;;;;46.50;35.00;;;;;;;-0.16;100.00;99603.84;2106502;28;20232;-70
2022/01/27 02:22:30;;;;;;;52.42;36.83;;;;;;;-0.18;100.00;99590.94;2098180;28;20714;-70
2022/01/27 02:23:32;;;;;;;52.15;36.58;;;;;;;-0.16;100.00;99599.41;2099027;28;20242;-70
2022/01/27 02:24:39;;;;;;;54.00;37.67;;;;;;;-0.13;100.00;99590.31;2106832;28;20192;-70
2022/01/27 02:25:46;;;;;;;54.05;36.67;;;;;;;-0.16;100.00;99598.63;2106538;28;20298;-70
2022/01/27 02:26:51;;;;;;;52.75;37.03;;;;;;;-0.15;100.00;99592.34;2106906;28;20606;-70
2022/01/27 02:27:59;;;;;;;52.30;36.28;;;;;;;-0.21;100.00;99604.47;2106075;28;20240;-70
2022/01/27 02:29:00;;;;;;;52.22;35.70;;;;;;;-0.23;100.00;99589.97;2106901;28;20170;-70
2022/01/27 02:30:02;;;;;;;51.55;36.10;;;;;;;-0.23;100.00;99588.16;2106009;28;20217;-70
2022/01/27 02:31:03;;;;;;;52.25;37.00;;;;;;;-0.22;100.00;99588.97;2098363;28;20711;-70
2022/01/27 02:32:06;;;;;;;57.20;38.43;;;;;;;-0.19;100.00;99583.28;2106836;28;20605;-70
2022/01/27 02:33:13;;;;;;;55.30;37.35;;;;;;;-0.20;100.00;99579.88;2107316;28;20238;-70
2022/01/27 02:34:18;;;;;;;51.53;36.75;;;;;;;-0.18;100.00;99577.03;2107157;28;20287;-70
2022/01/27 02:35:28;;;;;;;51.45;36.58;;;;;;;-0.09;100.00;99588.84;2107457;28;20193;-70
2022/01/27 02:36:33;;;;;;;56.30;37.50;;;;;;;-0.15;100.00;99579.25;2106066;28;20263;-70
2022/01/27 02:37:34;;;;;;;60.03;39.10;;;;;;;-0.17;100.00;99579.47;2106737;28;20201;-70
2022/01/27 02:38:38;;;;;;;62.70;38.63;;;;;;;-0.20;100.00;99574.63;2107424;28;20194;-70
2022/01/27 02:39:42;;;;;;;54.80;37.97;;;;;;;-0.16;100.00;99578.44;2106239;28;20197;-70
2022/01/27 02:40:56;;;;;;;56.17;38.10;;;;;;;-0.21;100.00;99583.50;2106716;28;20613;-70
2022/01/27 02:42:06;;;;;;;58.83;38.92;;;;;;;-0.24;100.00;99570.81;2107249;28;20283;-70
2022/01/27 02:43:10;;;;;;;57.50;37.70;;;;;;;-0.26;100.00;99570.25;2107286;28;20208;-70
2022/01/27 02:44:21;;;;;;;56.08;38.17;;;;;;;-0.25;100.00;99582.34;2106311;28;20224;-70
2022/01/27 02:45:33;;;;;;;56.13;38.53;;;;;;;-0.24;100.00;99570.81;2099664;28;20201;-70
2022/01/27 02:46:43;;;;;;;56.78;38.00;;;;;;;-0.20;100.00;99579.88;2099923;28;20271;-70
2022/01/27 02:47:47;;;;;;;58.33;37.95;;;;;;;-0.24;100.00;99568.22;2106835;28;20188;-70
2022/01/27 02:48:52;;;;;;;54.33;36.60;;;;;;;-0.21;100.00;99570.38;2107123;28;20271;-70
2022/01/27 02:49:56;;;;;;;56.78;36.22;;;;;;;-0.21;100.00;99572.22;2107145;28;20189;-71
2022/01/27 02:51:00;;;;;;;57.33;37.47;;;;;;;-0.20;100.00;99571.19;2106913;28;20194;-70
2022/01/27 02:52:06;;;;;;;56.67;36.45;;;;;;;-0.19;100.00;99575.41;2107485;28;20174;-71
2022/01/27 02:53:10;;;;;;;58.58;37.00;;;;;;;-0.19;100.00;99568.34;2107321;28;20620;-71
2022/01/27 02:54:18;;;;;;;53.08;35.83;;;;;;;-0.20;100.00;99574.63;2107172;28;20606;-70
2022/01/27 02:55:22;;;;;;;53.40;36.70;;;;;;;-0.17;100.00;99568.16;2105983;28;20221;-70
2022/01/27 02:56:28;;;;;;;56.88;37.03;;;;;;;-0.19;100.00;99564.94;2106485;28;20212;-70
2022/01/27 02:57:30;;;;;;;57.00;36.75;;;;;;;-0.18;100.00;99571.78;2106073;28;20198;-71
2022/01/27 02:58:34;;;;;;;53.40;36.65;;;;;;;-0.21;100.00;99573.00;2098256;28;20187;-70
2022/01/27 02:59:39;;;;;;;56.65;35.58;;;;;;;-0.19;100.00;99570.97;2098350;28;20198;-70
2022/01/27 03:00:46;;;;;;;55.20;36.47;;;;;;;-0.19;100.00;99564.94;2106567;28;20186;-70
2022/01/27 03:01:50;;;;;;;55.92;35.03;;;;;;;-0.15;100.00;99568.75;2106400;28;20240;-70
2022/01/27 03:02:58;;;;;;;51.85;35.28;;;;;;;-0.11;100.00;99578.59;2098134;28;20289;-70
2022/01/27 03:04:00;;;;;;;52.20;35.13;;;;;;;-0.17;100.00;99574.22;2106571;28;20220;-71
2022/01/27 03:05:05;;;;;;;51.00;35.65;;;;;;;-0.15;100.00;99577.41;2107238;28;20220;-71
2022/01/27 03:06:11;;;;;;;49.35;33.92;;;;;;;-0.05;100.00;99584.81;2105911;28;20255;-70
2022/01/27 03:07:17;;;;;;;52.25;35.53;;;;;;;-0.07;100.00;99571.91;2098200;28;20202;-71
2022/01/27 03:08:18;;;;;;;46.92;33.03;;;;;;;-0.11;100.00;99569.91;2106614;28;20194;-70
2022/01/27 03:09:23;;;;;;;46.08;32.75;;;;;;;-0.10;100.00;99584.63;2107122;28;20185;-70
2022/01/27 03:10:30;;;;;;;44.50;32.22;;;;;;;-0.16;100.00;99569.78;2107170;28;20186;-70
2022/01/27 03:11:44;;;;;;;52.00;32.85;;;;;;;-0.13;100.00;99580.63;2106283;28;20202;-70
2022/01/27 03:12:55;;;;;;;43.70;31.67;;;;;;;-0.13;100.00;99569.34;2106660;28;20169;-70
2022/01/27 03:13:59;;;;;;;47.70;33.50;;;;;;;-0.09;100.00;99566.09;2107114;28;20273;-70
2022/01/27 03:15:04;;;;;;;48.90;33.03;;;;;;;-0.03;100.00;99567.81;2106332;28;20212;-70
2022/01/27 03:16:08;;;;;;;45.63;32.10;;;;;;;-0.05;100.00;99572.50;2106518;28;20185;-70
2022/01/27 03:17:13;;;;;;;47.75;31.80;;;;;;;-0.09;100.00;99566.09;2106126;28;20218;-70
2022/01/27 03:18:18;;;;;;;45.90;31.27;;;;;;;-0.10;100.00;99564.44;2106479;28;20202;-70
2022/01/27 03:19:23;;;;;;;45.58;31.98;;;;;;;-0.08;100.00;99562.44;2105129;28;20324;-70
2022/01/27 03:20:32;;;;;;;46.05;30.70;;;;;;;-0.12;100.00;99566.50;2106485;28;20288;-70
2022/01/27 03:21:41;;;;;;;46.67;31.55;;;;;;;-0.06;100.00;99565.66;2106712;28;20217;-70
2022/01/27 03:22:46;;;;;;;44.25;30.75;;;;;;;-0.06;100.00;99565.66;2106989;28;20230;-70
2022/01/27 03:23:51;;;;;;;44.33;32.00;;;;;;;-0.05;100.00;99563.81;2106997;28;20552;-70
2022/01/27 03:24:55;;;;;;;43.42;30.27;;;;;;;-0.09;100.00;99563.47;2105924;28;20254;-70
2022/01/27 03:25:57;;;;;;;37.00;30.80;;;;;;;-0.11;100.00;99552.34;2106486;28;20196;-70
2022/01/27 03:27:02;;;;;;;41.22;30.00;;;;;;;-0.09;100.00;99560.84;2106259;28;20597;-70
2022/01/27 03:28:08;;;;;;;49.35;33.33;;;;;;;-0.09;100.00;99552.97;2106394;28;20633;-70
2022/01/27 03:29:16;;;;;;;38.25;29.88;;;;;;;-0.04;100.00;99550.50;2105761;28;20554;-70
2022/01/27 03:30:21;;;;;;;43.33;31.10;;;;;;;-0.06;100.00;99547.28;2098420;28;20234;-70
2022/01/27 03:31:22;;;;;;;45.00;31.90;;;;;;;-0.01;100.00;99547.44;2097752;28;20756;-70
2022/01/27 03:32:27;;;;;;;41.67;31.35;;;;;;;-0.02;100.00;99537.97;2106548;28;20251;-70
2022/01/27 03:33:30;;;;;;;42.28;29.75;;;;;;;-0.04;100.00;99553.13;2106235;28;20244;-70
2022/01/27 03:34:37;;;;;;;38.83;29.77;;;;;;;-0.06;100.00;99539.41;2106155;28;20244;-70
2022/01/27 03:35:43;;;;;;;39.22;30.58;;;;;;;-0.01;100.00;99554.50;2105942;28;20561;-70
2022/01/27 03:36:49;;;;;;;42.90;30.70;;;;;;;-0.02;100.00;99535.34;2105989;28;20607;-70
2022/01/27 03:37:57;;;;;;;42.40;30.40;;;;;;;0.12;100.00;99532.59;2106906;28;20561;-70
2022/01/27 03:39:01;;;;;;;38.33;30.13;;;;;;;0.07;100.00;99535.06;2106918;28;20196;-70
2022/01/27 03:40:04;;;;;;;39.28;30.35;;;;;;;0.06;100.00;99534.25;2107067;28;20192;-70
2022/01/27 03:41:09;;;;;;;36.80;28.85;;;;;;;0.01;100.00;99526.25;2106989;28;20552;-71
2022/01/27 03:42:16;;;;;;;35.60;29.88;;;;;;;-0.02;100.00;99516.97;2106928;28;20200;-70
2022/01/27 03:43:24;;;;;;;37.35;30.10;;;;;;;0.04;100.00;99517.94;2106935;28;20200;-70
2022/01/27 03:44:30;;;;;;;40.08;30.63;;;;;;;0.02;100.00;99516.56;2107099;28;20194;-70
2022/01/27 03:45:33;;;;;;;38.55;30.08;;;;;;;0.02;100.00;99516.56;2106934;28;20234;-70
2022/01/27 03:46:37;;;;;;;38.80;29.70;;;;;;;0.03;100.00;99518.97;2107147;28;20186;-70
2022/01/27 03:47:39;;;;;;;43.03;30.35;;;;;;;0.00;100.00;99522.03;2106971;28;20194;-71
2022/01/27 03:48:47;;;;;;;37.22;28.80;;;;;;;-0.02;100.00;99516.97;2106839;28;20715;-70
2022/01/27 03:49:51;;;;;;;36.63;29.75;;;;;;;-0.07;100.00;99511.59;2107022;28;20182;-70
2022/01/27 03:50:59;;;;;;;36.88;29.10;;;;;;;-0.07;100.00;99513.41;2105641;28;20687;-70
2022/01/27 03:52:05;;;;;;;36.42;29.20;;;;;;;-0.04;100.00;99515.59;2106629;28;20188;-70
2022/01/27 03:53:09;;;;;;;38.22;29.52;;;;;;;-0.02;100.00;99505.69;2107137;28;20577;-70
2022/01/27 03:54:12;;;;;;;37.17;28.88;;;;;;;-0.01;100.00;99517.78;2106090;28;20231;-70
2022/01/27 03:55:14;;;;;;;37.88;28.55;;;;;;;-0.02;100.00;99514.34;2106308;28;20190;-70
2022/01/27 03:56:20;;;;;;;38.80;29.58;;;;;;;-0.05;100.00;99508.75;2108369;28;20190;-70
2022/01/27 03:57:24;;;;;;;34.20;28.88;;;;;;;-0.02;100.00;99521.41;2107281;28;20217;-70
2022/01/27 03:58:30;;;;;;;35.38;29.40;;;;;;;-0.01;100.00;99510.72;2099542;28;20194;-70
2022/01/27 03:59:33;;;;;;;33.22;28.05;;;;;;;-0.01;100.00;99521.19;2099778;28;20202;-70
2022/01/27 04:00:36;;;;;;;38.55;29.90;;;;;;;0.01;100.00;99525.44;2107313;28;20216;-70
2022/01/27 04:01:38;;;;;;;36.35;28.88;;;;;;;0.00;100.00;99519.41;2108494;28;20728;-70
2022/01/27 04:02:57;;;;;;;34.33;28.33;;;;;;;0.01;100.00;99526.25;2108536;28;20182;-70
2022/01/27 04:04:01;;;;;;;35.30;27.63;;;;;;;-0.02;100.00;99511.72;2107410;28;20706;-70
2022/01/27 04:05:04;;;;;;;37.30;28.90;;;;;;;0.02;100.00;99508.69;2099287;28;20205;-70
2022/01/27 04:06:09;;;;;;;34.58;28.48;;;;;;;0.02;100.00;99522.59;2107320;28;20193;-70
2022/01/27 04:07:14;;;;;;;35.90;28.05;;;;;;;0.05;100.00;99510.88;2108624;28;20166;-71
2022/01/27 04:08:16;;;;;;;37.53;28.90;;;;;;;0.05;100.00;99510.88;2107699;28;20216;-71
2022/01/27 04:09:21;;;;;;;34.10;28.17;;;;;;;0.06;100.00;99513.28;2107923;28;20216;-70
2022/01/27 04:10:26;;;;;;;33.13;27.88;;;;;;;0.06;100.00;99512.47;2108652;28;20177;-70
2022/01/27 04:11:29;;;;;;;31.38;26.77;;;;;;;0.06;100.00;99509.84;2108369;28;20193;-70
2022/01/27 04:12:34;;;;;;;39.47;29.48;;;;;;;0.08;100.00;99526.16;2107188;28;20198;-71
2022/01/27 04:13:40;;;;;;;35.33;27.90;;;;;;;0.11;100.00;99508.19;2099436;28;20198;-70
2022/01/27 04:14:42;;;;;;;34.63;28.13;;;;;;;0.13;100.00;99515.84;2107733;28;20678;-71
2022/01/27 04:15:46;;;;;;;37.17;28.23;;;;;;;0.08;100.00;99519.09;2107677;28;20213;-70
2022/01/27 04:16:52;;;;;;;33.38;27.40;;;;;;;0.09;100.00;99514.66;2107916;28;20209;-70
2022/01/27 04:18:01;;;;;;;31.98;27.15;;;;;;;0.06;100.00;99539.50;2107070;28;20217;-70
2022/01/27 04:19:06;;;;;;;37.53;27.85;;;;;;;0.02;100.00;99516.56;2099430;28;20661;-71
2022/01/27 04:20:10;;;;;;;38.08;28.20;;;;;;;0.04;100.00;99517.16;2099827;28;20208;-70
2022/01/27 04:21:13;;;;;;;38.78;29.73;;;;;;;0.03;100.00;99518.97;2107287;28;20264;-71
2022/01/27 04:22:17;;;;;;;38.72;28.67;;;;;;;0.02;100.00;99519.97;2107685;28;20197;-71
2022/01/27 04:23:21;;;;;;;40.58;28.80;;;;;;;0.06;100.00;99523.75;2107814;28;20532;-71
2022/01/27 04:24:28;;;;;;;37.22;29.80;;;;;;;0.07;100.00;99521.94;2107309;28;20334;-70
2022/01/27 04:25:33;;;;;;;38.90;30.98;;;;;;;0.13;100.00;99518.47;2108085;28;20170;-70
2022/01/27 04:26:43;;;;;;;35.92;29.67;;;;;;;0.12;100.00;99514.25;2108443;28;20257;-71
2022/01/27 04:27:52;;;;;;;38.25;29.45;;;;;;;0.10;100.00;99511.84;2107652;28;20197;-70
2022/01/27 04:28:55;;;;;;;39.75;30.58;;;;;;;0.10;100.00;99509.22;2099743;28;20289;-71
2022/01/27 04:30:02;;;;;;;39.70;29.05;;;;;;;0.11;100.00;99510.03;2099533;28;20209;-71
2022/01/27 04:31:08;;;;;;;41.90;29.58;;;;;;;0.08;100.00;99513.06;2100213;28;20189;-71
2022/01/27 04:32:21;;;;;;;36.72;29.65;;;;;;;0.03;100.00;99505.84;2108014;28;20244;-71
2022/01/27 04:33:28;;;;;;;39.92;30.10;;;;;;;0.03;100.00;99505.03;2108175;28;20190;-71
2022/01/27 04:34:37;;;;;;;45.30;31.95;;;;;;;0.01;100.00;99517.59;2107246;28;20253;-71
2022/01/27 04:35:45;;;;;;;42.85;30.52;;;;;;;-0.07;100.00;99506.34;2107778;28;20193;-71
2022/01/27 04:36:47;;;;;;;39.78;30.88;;;;;;;-0.01;100.00;99518.56;2108059;28;20274;-71
2022/01/27 04:38:11;;;;;;;42.17;31.52;;;;;;;-0.03;100.00;99515.38;2107151;28;20225;-71
2022/01/27 04:39:21;;;;;;;43.47;30.98;;;;;;;-0.07;100.00;99514.22;2102194;28;20210;-70
2022/01/27 04:40:31;;;;;;;41.30;31.65;;;;;;;-0.05;100.00;99512.16;2107930;28;20174;-71
2022/01/27 04:41:45;;;;;;;43.55;32.80;;;;;;;-0.08;100.00;99512.63;2108206;28;20182;-71
2022/01/27 04:42:55;;;;;;;45.55;33.38;;;;;;;-0.09;100.00;99516.25;2108408;28;20193;-71
2022/01/27 04:44:06;;;;;;;47.40;33.40;;;;;;;-0.08;100.00;99512.63;2107248;28;20216;-71
2022/01/27 04:45:14;;;;;;;43.28;32.08;;;;;;;-0.08;100.00;99509.19;2107742;28;20197;-71
2022/01/27 04:46:28;;;;;;;44.88;32.83;;;;;;;-0.11;100.00;99509.59;2108150;28;20194;-71
2022/01/27 04:47:38;;;;;;;45.20;32.78;;;;;;;-0.13;100.00;99509.81;2108241;28;20231;-71
2022/01/27 04:48:52;;;;;;;43.95;32.33;;;;;;;-0.16;100.00;99510.25;2108367;28;20201;-71
2022/01/27 04:49:54;;;;;;;45.78;33.20;;;;;;;-0.15;100.00;99496.13;2106998;28;20221;-71
2022/01/27 04:51:04;;;;;;;49.67;34.42;;;;;;;-0.14;100.00;99499.56;2107089;28;20190;-71
2022/01/27 04:52:08;;;;;;;45.95;33.63;;;;;;;-0.12;100.00;99516.66;2108401;28;20624;-71
2022/01/27 04:53:22;;;;;;;43.55;33.35;;;;;;;-0.16;100.00;99505.00;2108130;28;20198;-71
2022/01/27 04:54:33;;;;;;;46.38;34.20;;;;;;;-0.17;100.00;99516.53;2108191;28;20190;-71
2022/01/27 04:55:38;;;;;;;48.20;34.13;;;;;;;-0.16;100.00;99506.84;2108187;28;20190;-72
2022/01/27 04:56:42;;;;;;;48.38;34.60;;;;;;;-0.18;100.00;99514.88;2108071;28;20198;-71
2022/01/27 04:57:45;;;;;;;47.75;33.20;;;;;;;-0.21;100.00;99515.34;2107222;28;20270;-71
2022/01/27 04:58:55;;;;;;;47.33;34.17;;;;;;;-0.21;100.00;99520.56;2107552;28;20212;-71
2022/01/27 05:00:01;;;;;;;50.47;34.95;;;;;;;-0.15;100.00;99508.44;2108097;28;20192;-72
2022/01/27 05:01:04;;;;;;;47.53;34.28;;;;;;;-0.14;100.00;99510.03;2108224;28;20194;-71
2022/01/27 05:02:15;;;;;;;45.72;32.80;;;;;;;-0.07;100.00;99505.53;2108093;28;20619;-72
2022/01/27 05:03:23;;;;;;;50.67;34.40;;;;;;;-0.08;100.00;99511.81;2108116;28;20684;-72
2022/01/27 05:04:32;;;;;;;48.75;34.75;;;;;;;-0.10;100.00;99512.00;2107334;28;20201;-72
2022/01/27 05:05:38;;;;;;;48.55;35.17;;;;;;;-0.10;100.00;99516.44;2107378;28;20228;-72
2022/01/27 05:06:45;;;;;;;47.08;34.53;;;;;;;-0.12;100.00;99502.75;2106710;28;20237;-72
2022/01/27 05:07:54;;;;;;;52.70;36.40;;;;;;;-0.11;100.00;99510.41;2108258;28;20170;-71
2022/01/27 05:09:02;;;;;;;49.35;34.92;;;;;;;-0.15;100.00;99506.63;2107270;28;20231;-72
2022/01/27 05:10:11;;;;;;;52.10;34.55;;;;;;;-0.15;100.00;99511.06;2107408;28;20193;-72
2022/01/27 05:11:19;;;;;;;50.17;33.55;;;;;;;-0.18;100.00;99498.34;2107990;28;20190;-72
2022/01/27 05:12:33;;;;;;;50.72;33.60;;;;;;;-0.20;100.00;99503.81;2106989;28;20201;-71
2022/01/27 05:13:47;;;;;;;49.97;34.58;;;;;;;-0.16;100.00;99499.78;2100938;28;20202;-71
2022/01/27 05:14:54;;;;;;;43.80;32.28;;;;;;;-0.14;100.00;99495.09;2107717;28;20285;-70
2022/01/27 05:16:01;;;;;;;45.45;32.83;;;;;;;-0.13;100.00;99499.31;2107872;28;20194;-70
2022/01/27 05:17:04;;;;;;;48.60;34.35;;;;;;;-0.14;100.00;99489.06;2106810;28;20676;-70
2022/01/27 05:18:08;;;;;;;48.03;33.88;;;;;;;-0.17;100.00;99492.94;2107250;28;20209;-70
2022/01/27 05:19:10;;;;;;;47.22;34.08;;;;;;;-0.15;100.00;99493.50;2108142;28;20190;-70
2022/01/27 05:20:13;;;;;;;45.95;32.92;;;;;;;-0.18;100.00;99493.91;2108160;28;20212;-70
2022/01/27 05:21:18;;;;;;;45.30;32.13;;;;;;;-0.12;100.00;99500.13;2106285;28;20221;-71
2022/01/27 05:22:23;;;;;;;44.28;32.17;;;;;;;-0.12;100.00;99500.94;2107288;28;20695;-70
2022/01/27 05:23:28;;;;;;;46.78;33.28;;;;;;;-0.17;100.00;99485.06;2107760;28;20195;-70